createdAt,value
2019-01-14T00:00:19.331Z,6.90
2019-01-14T00:01:19.318Z,6.90
2019-01-14T00:02:19.309Z,6.92
2019-01-14T00:03:19.300Z,6.92
2019-01-14T00:04:19.284Z,6.90
2019-01-14T00:05:19.278Z,6.94
2019-01-14T00:06:19.264Z,6.90
2019-01-14T00:07:19.254Z,6.89
2019-01-14T00:08:19.242Z,6.89
2019-01-14T00:09:23.088Z,6.89
2019-01-14T00:10:19.219Z,6.88
2019-01-14T00:11:19.209Z,6.82
2019-01-14T00:12:19.196Z,6.81
2019-01-14T00:13:19.184Z,6.78
2019-01-14T00:14:19.174Z,6.78
2019-01-14T00:15:19.162Z,6.78
2019-01-14T00:16:19.151Z,6.81
2019-01-14T00:17:19.141Z,6.80
2019-01-14T00:18:19.131Z,6.74
2019-01-14T00:19:19.122Z,6.74
2019-01-14T00:20:19.112Z,6.71
2019-01-14T00:21:19.099Z,6.67
2019-01-14T00:22:19.086Z,6.59
2019-01-14T00:23:19.077Z,6.44
2019-01-14T00:24:19.063Z,6.24
2019-01-14T00:25:19.052Z,6.11
2019-01-14T00:26:19.039Z,6.06
2019-01-14T00:27:19.031Z,6.02
2019-01-14T00:28:19.019Z,5.99
2019-01-14T00:29:19.007Z,5.98
2019-01-14T00:30:19.000Z,6.01
2019-01-14T00:31:18.986Z,5.99
2019-01-14T00:32:18.975Z,6.01
2019-01-14T00:33:18.964Z,5.95
2019-01-14T00:34:18.957Z,5.96
2019-01-14T00:35:18.952Z,5.95
2019-01-14T00:36:18.933Z,5.95
2019-01-14T00:37:18.922Z,5.88
2019-01-14T00:38:18.911Z,5.85
2019-01-14T00:39:18.898Z,5.84
2019-01-14T00:40:18.887Z,5.81
2019-01-14T00:41:18.877Z,5.80
2019-01-14T00:42:18.869Z,5.78
2019-01-14T00:43:18.858Z,5.78
2019-01-14T00:44:18.846Z,5.74
2019-01-14T00:45:18.834Z,5.74
2019-01-14T00:46:18.823Z,5.78
2019-01-14T00:47:18.811Z,5.81
2019-01-14T00:48:18.812Z,5.77
2019-01-14T00:49:18.794Z,5.77
2019-01-14T00:50:18.779Z,5.77
2019-01-14T00:51:18.769Z,5.77
2019-01-14T00:52:18.758Z,5.80
2019-01-14T00:53:18.748Z,5.88
2019-01-14T00:54:18.738Z,5.87
2019-01-14T00:55:18.724Z,5.87
2019-01-14T00:56:18.714Z,5.85
2019-01-14T00:57:18.705Z,5.88
2019-01-14T00:58:18.692Z,5.87
2019-01-14T00:59:18.681Z,5.88
2019-01-14T01:00:18.671Z,5.88
2019-01-14T01:01:18.662Z,5.88
2019-01-14T01:02:18.650Z,5.90
2019-01-14T01:03:18.637Z,5.92
2019-01-14T01:04:18.629Z,5.90
2019-01-14T01:05:18.618Z,5.90
2019-01-14T01:06:24.622Z,5.92
2019-01-14T01:07:39.779Z,5.95
2019-01-14T01:08:39.766Z,5.96
2019-01-14T01:09:39.754Z,5.98
2019-01-14T01:10:39.745Z,5.99
2019-01-14T01:11:39.734Z,5.98
2019-01-14T01:12:41.222Z,5.98
2019-01-14T01:13:39.714Z,5.99
2019-01-14T01:14:39.702Z,6.01
2019-01-14T01:15:39.692Z,6.03
2019-01-14T01:16:39.680Z,6.02
2019-01-14T01:17:39.669Z,6.05
2019-01-14T01:18:39.658Z,6.06
2019-01-14T01:19:39.648Z,6.03
2019-01-14T01:20:39.638Z,6.02
2019-01-14T01:21:39.626Z,6.01
2019-01-14T01:22:39.614Z,6.01
2019-01-14T01:23:39.605Z,6.01
2019-01-14T01:24:39.594Z,6.01
2019-01-14T01:25:39.585Z,5.99
2019-01-14T01:26:39.571Z,5.99
2019-01-14T01:27:39.564Z,5.99
2019-01-14T01:28:39.553Z,5.98
2019-01-14T01:29:39.539Z,5.95
2019-01-14T01:30:39.531Z,5.95
2019-01-14T01:31:39.519Z,5.95
2019-01-14T01:32:39.509Z,5.95
2019-01-14T01:33:39.498Z,5.95
2019-01-14T01:34:39.488Z,5.95
2019-01-14T01:35:39.475Z,5.93
2019-01-14T01:36:39.465Z,5.92
2019-01-14T01:37:39.452Z,5.88
2019-01-14T01:38:39.442Z,5.88
2019-01-14T01:39:39.431Z,5.85
2019-01-14T01:40:39.423Z,5.88
2019-01-14T01:41:39.413Z,5.87
2019-01-14T01:42:39.406Z,5.87
2019-01-14T01:43:39.388Z,5.85
2019-01-14T01:44:39.380Z,5.84
2019-01-14T01:45:39.377Z,5.83
2019-01-14T01:46:39.358Z,5.85
2019-01-14T01:47:39.347Z,5.80
2019-01-14T01:48:39.336Z,5.83
2019-01-14T01:49:39.330Z,5.83
2019-01-14T01:50:39.315Z,5.83
2019-01-14T01:51:39.304Z,5.83
2019-01-14T01:52:39.295Z,5.80
2019-01-14T01:53:39.283Z,5.75
2019-01-14T01:54:39.277Z,5.75
2019-01-14T01:55:39.260Z,5.74
2019-01-14T01:56:39.249Z,5.75
2019-01-14T01:57:39.240Z,5.70
2019-01-14T01:58:39.242Z,5.69
2019-01-14T01:59:39.217Z,5.63
2019-01-14T02:00:39.205Z,5.62
2019-01-14T02:01:39.197Z,5.62
2019-01-14T02:02:39.185Z,5.59
2019-01-14T02:03:39.174Z,5.55
2019-01-14T02:04:39.164Z,5.47
2019-01-14T02:05:39.153Z,5.46
2019-01-14T02:06:39.453Z,5.44
2019-01-14T02:07:39.131Z,5.40
2019-01-14T02:08:39.120Z,5.34
2019-01-14T02:09:39.108Z,5.34
2019-01-14T02:10:39.099Z,5.31
2019-01-14T02:11:39.093Z,5.28
2019-01-14T02:12:39.077Z,5.23
2019-01-14T02:13:39.065Z,5.26
2019-01-14T02:14:39.056Z,5.23
2019-01-14T02:15:39.046Z,5.25
2019-01-14T02:16:39.036Z,5.25
2019-01-14T02:17:39.024Z,5.22
2019-01-14T02:18:39.014Z,5.16
2019-01-14T02:19:39.001Z,5.18
2019-01-14T02:20:38.991Z,5.14
2019-01-14T02:21:38.981Z,5.16
2019-01-14T02:22:38.971Z,5.13
2019-01-14T02:23:38.960Z,5.18
2019-01-14T02:24:38.950Z,5.16
2019-01-14T02:25:38.940Z,5.16
2019-01-14T02:26:38.928Z,5.18
2019-01-14T02:27:38.916Z,5.19
2019-01-14T02:28:38.906Z,5.21
2019-01-14T02:29:38.895Z,5.22
2019-01-14T02:30:38.890Z,5.19
2019-01-14T02:31:38.873Z,5.21
2019-01-14T02:32:38.864Z,5.21
2019-01-14T02:33:38.851Z,5.22
2019-01-14T02:34:38.842Z,5.23
2019-01-14T02:35:38.832Z,5.26
2019-01-14T02:36:38.820Z,5.32
2019-01-14T02:37:38.811Z,5.34
2019-01-14T02:38:38.805Z,5.40
2019-01-14T02:39:38.789Z,5.43
2019-01-14T02:40:38.777Z,5.46
2019-01-14T02:41:38.774Z,5.48
2019-01-14T02:42:38.756Z,5.46
2019-01-14T02:43:38.745Z,5.43
2019-01-14T02:44:38.733Z,5.47
2019-01-14T02:45:38.722Z,5.46
2019-01-14T02:46:38.713Z,5.48
2019-01-14T02:47:38.699Z,5.52
2019-01-14T02:48:38.689Z,5.52
2019-01-14T02:49:38.678Z,5.56
2019-01-14T02:50:38.669Z,5.55
2019-01-14T02:51:38.658Z,5.58
2019-01-14T02:52:39.808Z,5.60
2019-01-14T02:53:38.637Z,5.60
2019-01-14T02:54:38.630Z,5.65
2019-01-14T02:55:38.613Z,5.70
2019-01-14T02:56:38.604Z,5.74
2019-01-14T02:57:38.596Z,5.75
2019-01-14T02:58:38.584Z,5.78
2019-01-14T02:59:38.581Z,5.80
2019-01-14T03:00:38.561Z,5.83
2019-01-14T03:01:38.549Z,5.84
2019-01-14T03:02:38.542Z,5.87
2019-01-14T03:03:38.529Z,5.87
2019-01-14T03:04:38.520Z,5.87
2019-01-14T03:05:38.517Z,5.88
2019-01-14T03:06:38.497Z,5.90
2019-01-14T03:07:38.484Z,5.95
2019-01-14T03:08:38.479Z,5.95
2019-01-14T03:09:38.463Z,5.96
2019-01-14T03:10:38.453Z,5.98
2019-01-14T03:11:38.443Z,5.98
2019-01-14T03:12:38.431Z,5.96
2019-01-14T03:13:38.462Z,5.98
2019-01-14T03:14:38.411Z,5.98
2019-01-14T03:15:38.399Z,5.96
2019-01-14T03:16:38.387Z,5.93
2019-01-14T03:17:38.378Z,5.95
2019-01-14T03:18:38.365Z,5.96
2019-01-14T03:19:38.354Z,5.95
2019-01-14T03:20:38.343Z,5.96
2019-01-14T03:21:38.334Z,5.99
2019-01-14T03:22:38.323Z,6.02
2019-01-14T03:23:38.319Z,6.03
2019-01-14T03:24:38.299Z,6.03
2019-01-14T03:25:38.291Z,6.05
2019-01-14T03:26:38.280Z,6.02
2019-01-14T03:27:38.269Z,6.01
2019-01-14T03:28:38.259Z,6.05
2019-01-14T03:29:38.250Z,6.03
2019-01-14T03:30:38.236Z,6.03
2019-01-14T03:31:38.235Z,6.01
2019-01-14T03:32:38.234Z,5.98
2019-01-14T03:33:38.204Z,6.01
2019-01-14T03:34:38.193Z,5.98
2019-01-14T03:35:38.182Z,5.99
2019-01-14T03:36:38.174Z,5.98
2019-01-14T03:37:38.162Z,5.98
2019-01-14T03:38:38.155Z,5.96
2019-01-14T03:39:38.140Z,5.93
2019-01-14T03:40:38.130Z,5.95
2019-01-14T03:41:38.121Z,5.93
2019-01-14T03:42:38.118Z,5.93
2019-01-14T03:43:38.097Z,5.93
2019-01-14T03:44:38.088Z,5.95
2019-01-14T03:45:38.076Z,5.92
2019-01-14T03:46:38.065Z,5.90
2019-01-14T03:47:38.073Z,5.92
2019-01-14T03:48:38.041Z,5.92
2019-01-14T03:49:38.035Z,5.92
2019-01-14T03:50:38.023Z,5.90
2019-01-14T03:51:38.009Z,5.88
2019-01-14T03:52:37.999Z,5.88
2019-01-14T03:53:38.004Z,5.90
2019-01-14T03:54:37.977Z,5.90
2019-01-14T03:55:37.967Z,5.90
2019-01-14T03:56:37.955Z,5.92
2019-01-14T03:57:37.946Z,5.92
2019-01-14T03:58:37.935Z,5.93
2019-01-14T03:59:37.931Z,5.95
2019-01-14T04:00:37.915Z,5.93
2019-01-14T04:01:37.902Z,5.93
2019-01-14T04:02:37.891Z,5.95
2019-01-14T04:03:37.884Z,5.95
2019-01-14T04:04:37.871Z,5.95
2019-01-14T04:05:37.859Z,5.95
2019-01-14T04:06:37.849Z,5.98
2019-01-14T04:07:37.839Z,5.95
2019-01-14T04:08:37.828Z,5.99
2019-01-14T04:09:37.824Z,5.99
2019-01-14T04:10:37.807Z,6.01
2019-01-14T04:11:37.798Z,6.01
2019-01-14T04:12:37.783Z,6.01
2019-01-14T04:13:37.782Z,5.99
2019-01-14T04:14:37.763Z,6.01
2019-01-14T04:15:37.750Z,6.03
2019-01-14T04:16:37.741Z,6.02
2019-01-14T04:17:37.731Z,6.05
2019-01-14T04:18:37.719Z,6.05
2019-01-14T04:19:37.714Z,6.05
2019-01-14T04:20:37.697Z,6.05
2019-01-14T04:21:37.688Z,6.03
2019-01-14T04:22:37.678Z,6.03
2019-01-14T04:23:37.665Z,6.05
2019-01-14T04:24:37.654Z,6.05
2019-01-14T04:25:37.645Z,6.06
2019-01-14T04:26:37.634Z,6.05
2019-01-14T04:27:37.623Z,6.05
2019-01-14T04:28:37.612Z,6.03
2019-01-14T04:29:37.601Z,6.03
2019-01-14T04:30:37.590Z,6.05
2019-01-14T04:31:37.579Z,6.10
2019-01-14T04:32:37.568Z,6.10
2019-01-14T04:33:37.559Z,6.11
2019-01-14T04:34:37.548Z,6.11
2019-01-14T04:35:37.536Z,6.11
2019-01-14T04:36:37.527Z,6.10
2019-01-14T04:37:37.515Z,6.10
2019-01-14T04:38:37.506Z,6.11
2019-01-14T04:39:37.494Z,6.11
2019-01-14T04:40:37.486Z,6.10
2019-01-14T04:41:37.475Z,6.08
2019-01-14T04:42:37.460Z,6.11
2019-01-14T04:43:37.453Z,6.13
2019-01-14T04:44:37.440Z,6.14
2019-01-14T04:45:37.431Z,6.14
2019-01-14T04:46:37.419Z,6.16
2019-01-14T04:47:37.407Z,6.16
2019-01-14T04:48:37.396Z,6.16
2019-01-14T04:49:37.384Z,6.16
2019-01-14T04:50:37.380Z,6.17
2019-01-14T04:51:37.369Z,6.16
2019-01-14T04:52:37.353Z,6.14
2019-01-14T04:53:37.342Z,6.17
2019-01-14T04:54:37.335Z,6.16
2019-01-14T04:55:37.321Z,6.16
2019-01-14T04:56:37.310Z,6.14
2019-01-14T04:57:37.301Z,6.16
2019-01-14T04:58:37.287Z,6.19
2019-01-14T04:59:37.278Z,6.20
2019-01-14T05:00:37.267Z,6.23
2019-01-14T05:01:37.254Z,6.23
2019-01-14T05:02:37.246Z,6.21
2019-01-14T05:03:37.238Z,6.19
2019-01-14T05:04:37.227Z,6.17
2019-01-14T05:05:37.212Z,6.16
2019-01-14T05:06:37.209Z,6.13
2019-01-14T05:07:37.192Z,6.11
2019-01-14T05:08:37.182Z,6.10
2019-01-14T05:09:37.170Z,6.13
2019-01-14T05:10:37.156Z,6.13
2019-01-14T05:11:37.145Z,6.14
2019-01-14T05:12:37.138Z,6.16
2019-01-14T05:13:37.124Z,6.17
2019-01-14T05:14:37.112Z,6.14
2019-01-14T05:15:37.237Z,6.16
2019-01-14T05:16:37.092Z,6.16
2019-01-14T05:17:37.087Z,6.14
2019-01-14T05:18:37.071Z,6.17
2019-01-14T05:19:37.059Z,6.16
2019-01-14T05:20:37.048Z,6.20
2019-01-14T05:21:37.038Z,6.21
2019-01-14T05:22:37.028Z,6.21
2019-01-14T05:23:37.015Z,6.20
2019-01-14T05:24:37.006Z,6.17
2019-01-14T05:25:36.995Z,6.16
2019-01-14T05:26:36.987Z,6.16
2019-01-14T05:27:36.972Z,6.17
2019-01-14T05:28:36.963Z,6.16
2019-01-14T05:29:36.951Z,6.16
2019-01-14T05:30:36.943Z,6.14
2019-01-14T05:31:36.927Z,6.14
2019-01-14T05:32:36.919Z,6.16
2019-01-14T05:33:36.905Z,6.17
2019-01-14T05:34:36.896Z,6.16
2019-01-14T05:35:36.886Z,6.16
2019-01-14T05:36:36.875Z,6.14
2019-01-14T05:37:37.543Z,6.16
2019-01-14T05:38:36.854Z,6.16
2019-01-14T05:39:36.844Z,6.16
2019-01-14T05:40:36.833Z,6.17
2019-01-14T05:41:36.821Z,6.19
2019-01-14T05:42:36.808Z,6.17
2019-01-14T05:43:36.800Z,6.17
2019-01-14T05:44:36.790Z,6.20
2019-01-14T05:45:36.780Z,6.19
2019-01-14T05:46:36.767Z,6.19
2019-01-14T05:47:36.757Z,6.19
2019-01-14T05:48:36.748Z,6.20
2019-01-14T05:49:36.734Z,6.21
2019-01-14T05:50:36.728Z,6.20
2019-01-14T05:51:36.720Z,6.20
2019-01-14T05:52:36.716Z,6.20
2019-01-14T05:53:36.690Z,6.20
2019-01-14T05:54:36.684Z,6.19
2019-01-14T05:55:36.668Z,6.21
2019-01-14T05:56:36.696Z,6.19
2019-01-14T05:57:36.646Z,6.17
2019-01-14T05:58:36.645Z,6.21
2019-01-14T05:59:36.628Z,6.19
2019-01-14T06:00:36.618Z,6.17
2019-01-14T06:01:36.605Z,6.19
2019-01-14T06:02:36.594Z,6.19
2019-01-14T06:03:36.581Z,6.19
2019-01-14T06:04:36.573Z,6.20
2019-01-14T06:05:36.561Z,6.20
2019-01-14T06:06:36.549Z,6.19
2019-01-14T06:07:36.540Z,6.17
2019-01-14T06:08:36.532Z,6.17
2019-01-14T06:09:36.519Z,6.14
2019-01-14T06:10:36.508Z,6.13
2019-01-14T06:11:36.495Z,6.14
2019-01-14T06:12:36.487Z,6.13
2019-01-14T06:13:36.477Z,6.11
2019-01-14T06:14:36.465Z,6.10
2019-01-14T06:15:36.455Z,6.11
2019-01-14T06:16:36.445Z,6.10
2019-01-14T06:17:36.431Z,6.11
2019-01-14T06:18:36.420Z,6.08
2019-01-14T06:19:36.409Z,6.06
2019-01-14T06:20:36.397Z,6.03
2019-01-14T06:21:36.389Z,6.02
2019-01-14T06:22:36.376Z,6.01
2019-01-14T06:23:36.366Z,5.99
2019-01-14T06:24:36.357Z,5.99
2019-01-14T06:25:36.345Z,5.99
2019-01-14T06:26:36.333Z,6.02
2019-01-14T06:27:36.323Z,6.03
2019-01-14T06:28:36.311Z,6.01
2019-01-14T06:29:36.302Z,5.99
2019-01-14T06:30:36.291Z,5.96
2019-01-14T06:31:36.281Z,5.98
2019-01-14T06:32:36.269Z,5.95
2019-01-14T06:33:36.264Z,5.96
2019-01-14T06:34:36.248Z,5.96
2019-01-14T06:35:36.244Z,6.01
2019-01-14T06:36:36.231Z,6.01
2019-01-14T06:37:36.214Z,5.99
2019-01-14T06:38:36.207Z,5.99
2019-01-14T06:39:36.195Z,6.02
2019-01-14T06:40:36.184Z,5.99
2019-01-14T06:41:37.251Z,6.02
2019-01-14T06:42:36.162Z,6.02
2019-01-14T06:43:36.150Z,6.05
2019-01-14T06:44:36.142Z,6.06
2019-01-14T06:45:36.127Z,6.06
2019-01-14T06:46:36.116Z,6.08
2019-01-14T06:47:36.107Z,6.06
2019-01-14T06:48:36.106Z,6.11
2019-01-14T06:49:36.086Z,6.10
2019-01-14T06:50:36.076Z,6.10
2019-01-14T06:51:36.064Z,6.08
2019-01-14T06:52:36.054Z,6.06
2019-01-14T06:53:36.048Z,6.03
2019-01-14T06:54:36.030Z,6.02
2019-01-14T06:55:36.020Z,5.99
2019-01-14T06:56:36.009Z,5.98
2019-01-14T06:57:36.002Z,5.96
2019-01-14T06:58:35.985Z,5.96
2019-01-14T06:59:35.975Z,5.96
2019-01-14T07:00:35.965Z,5.93
2019-01-14T07:01:35.953Z,5.92
2019-01-14T07:02:35.943Z,5.88
2019-01-14T07:03:35.931Z,5.85
2019-01-14T07:04:35.921Z,5.87
2019-01-14T07:05:35.922Z,5.92
2019-01-14T07:06:35.898Z,5.93
2019-01-14T07:07:35.888Z,5.93
2019-01-14T07:08:35.876Z,5.93
2019-01-14T07:09:35.864Z,5.93
2019-01-14T07:10:35.853Z,5.90
2019-01-14T07:11:35.842Z,5.92
2019-01-14T07:12:35.831Z,5.92
2019-01-14T07:13:35.922Z,5.92
2019-01-14T07:14:35.812Z,5.92
2019-01-14T07:15:35.799Z,5.95
2019-01-14T07:16:35.787Z,5.92
2019-01-14T07:17:35.778Z,5.92
2019-01-14T07:18:35.765Z,5.92
2019-01-14T07:19:35.756Z,5.93
2019-01-14T07:20:35.745Z,5.95
2019-01-14T07:21:35.731Z,5.96
2019-01-14T07:22:35.722Z,5.95
2019-01-14T07:23:35.710Z,5.93
2019-01-14T07:24:35.700Z,5.92
2019-01-14T07:25:35.689Z,5.93
2019-01-14T07:26:35.679Z,5.95
2019-01-14T07:27:35.666Z,5.96
2019-01-14T07:28:35.654Z,5.98
2019-01-14T07:29:35.643Z,5.98
2019-01-14T07:30:35.635Z,5.96
2019-01-14T07:31:35.622Z,5.99
2019-01-14T07:32:35.623Z,6.01
2019-01-14T07:33:35.602Z,5.99
2019-01-14T07:34:35.590Z,5.98
2019-01-14T07:35:35.584Z,6.01
2019-01-14T07:36:35.567Z,6.02
2019-01-14T07:37:35.558Z,5.99
2019-01-14T07:38:35.546Z,5.98
2019-01-14T07:39:35.534Z,5.98
2019-01-14T07:40:35.523Z,5.98
2019-01-14T07:41:35.509Z,5.98
2019-01-14T07:42:35.499Z,5.96
2019-01-14T07:43:35.490Z,5.99
2019-01-14T07:44:35.502Z,6.01
2019-01-14T07:45:35.467Z,6.02
2019-01-14T07:46:35.457Z,6.02
2019-01-14T07:47:35.446Z,6.05
2019-01-14T07:48:35.436Z,6.08
2019-01-14T07:49:35.422Z,6.11
2019-01-14T07:50:35.412Z,6.06
2019-01-14T07:51:35.400Z,5.93
2019-01-14T07:52:35.388Z,5.83
2019-01-14T07:53:35.376Z,5.73
2019-01-14T07:54:35.365Z,5.50
2019-01-14T07:55:35.356Z,5.39
2019-01-14T07:56:35.346Z,5.22
2019-01-14T07:57:35.333Z,4.96
2019-01-14T07:58:35.327Z,4.74
2019-01-14T07:59:35.312Z,4.54
2019-01-14T08:00:35.299Z,4.38
2019-01-14T08:01:35.290Z,4.18
2019-01-14T08:02:35.276Z,4.01
2019-01-14T08:03:35.267Z,3.98
2019-01-14T08:04:35.258Z,3.94
2019-01-14T08:05:35.247Z,3.91
2019-01-14T08:06:35.237Z,3.85
2019-01-14T08:07:35.224Z,3.83
2019-01-14T08:08:35.216Z,3.74
2019-01-14T08:09:35.207Z,3.76
2019-01-14T08:10:35.191Z,3.73
2019-01-14T08:11:35.229Z,3.74
2019-01-14T08:12:35.170Z,3.67
2019-01-14T08:13:35.181Z,3.61
2019-01-14T08:14:35.150Z,3.59
2019-01-14T08:15:35.138Z,3.61
2019-01-14T08:16:35.129Z,3.61
2019-01-14T08:17:35.117Z,3.58
2019-01-14T08:18:35.106Z,3.58
2019-01-14T08:19:35.097Z,3.59
2019-01-14T08:20:35.134Z,3.59
2019-01-14T08:21:35.074Z,3.55
2019-01-14T08:22:35.064Z,3.53
2019-01-14T08:23:35.052Z,3.52
2019-01-14T08:24:35.041Z,3.48
2019-01-14T08:25:35.031Z,3.38
2019-01-14T08:26:35.018Z,3.33
2019-01-14T08:27:35.009Z,3.31
2019-01-14T08:28:34.996Z,3.28
2019-01-14T08:29:34.986Z,3.25
2019-01-14T08:30:34.978Z,3.30
2019-01-14T08:31:34.972Z,3.37
2019-01-14T08:32:34.956Z,3.35
2019-01-14T08:33:34.946Z,3.35
2019-01-14T08:34:34.938Z,3.40
2019-01-14T08:35:34.923Z,3.44
2019-01-14T08:36:34.914Z,3.44
2019-01-14T08:37:34.902Z,3.44
2019-01-14T08:38:34.894Z,3.51
2019-01-14T08:39:34.881Z,3.45
2019-01-14T08:40:34.870Z,3.45
2019-01-14T08:41:34.859Z,3.48
2019-01-14T08:42:34.848Z,3.51
2019-01-14T08:43:34.859Z,3.51
2019-01-14T08:44:34.826Z,3.48
2019-01-14T08:45:34.817Z,3.48
2019-01-14T08:46:34.808Z,3.52
2019-01-14T08:47:34.794Z,3.55
2019-01-14T08:48:34.785Z,3.58
2019-01-14T08:49:34.774Z,3.56
2019-01-14T08:50:34.763Z,3.58
2019-01-14T08:51:34.781Z,3.56
2019-01-14T08:52:34.741Z,3.52
2019-01-14T08:53:34.729Z,3.52
2019-01-14T08:54:34.717Z,3.49
2019-01-14T08:55:34.708Z,3.51
2019-01-14T08:56:34.697Z,3.55
2019-01-14T08:57:34.685Z,3.58
2019-01-14T08:58:34.678Z,3.61
2019-01-14T08:59:34.663Z,3.63
2019-01-14T09:00:34.652Z,3.69
2019-01-14T09:01:34.640Z,3.67
2019-01-14T09:02:34.631Z,3.69
2019-01-14T09:03:34.618Z,3.71
2019-01-14T09:04:34.608Z,3.79
2019-01-14T09:05:34.600Z,3.77
2019-01-14T09:06:34.588Z,3.85
2019-01-14T09:07:34.577Z,3.91
2019-01-14T09:08:34.565Z,3.95
2019-01-14T09:09:34.555Z,3.94
2019-01-14T09:10:34.546Z,3.94
2019-01-14T09:11:34.530Z,3.99
2019-01-14T09:12:34.523Z,3.99
2019-01-14T09:13:34.518Z,3.98
2019-01-14T09:14:34.499Z,3.92
2019-01-14T09:15:34.490Z,3.98
2019-01-14T09:16:34.476Z,4.05
2019-01-14T09:17:34.467Z,4.05
2019-01-14T09:18:34.458Z,4.03
2019-01-14T09:19:34.445Z,4.07
2019-01-14T09:20:34.434Z,4.07
2019-01-14T09:21:34.422Z,4.07
2019-01-14T09:22:34.411Z,4.06
2019-01-14T09:23:34.403Z,4.07
2019-01-14T09:24:34.392Z,4.03
2019-01-14T09:25:34.385Z,3.99
2019-01-14T09:26:34.368Z,4.01
2019-01-14T09:27:34.358Z,4.01
2019-01-14T09:28:34.349Z,3.98
2019-01-14T09:29:34.338Z,3.92
2019-01-14T09:30:34.325Z,3.92
2019-01-14T09:31:34.316Z,3.89
2019-01-14T09:32:34.306Z,3.87
2019-01-14T09:33:34.297Z,3.77
2019-01-14T09:34:34.282Z,3.77
2019-01-14T09:35:34.273Z,3.80
2019-01-14T09:36:34.261Z,3.81
2019-01-14T09:37:34.250Z,3.81
2019-01-14T09:38:36.011Z,3.87
2019-01-14T09:39:34.231Z,3.89
2019-01-14T09:40:34.220Z,3.89
2019-01-14T09:41:34.208Z,3.94
2019-01-14T09:42:34.197Z,3.95
2019-01-14T09:43:34.186Z,3.99
2019-01-14T09:44:34.174Z,4.03
2019-01-14T09:45:34.175Z,4.05
2019-01-14T09:46:34.155Z,4.05
2019-01-14T09:47:34.142Z,4.01
2019-01-14T09:48:34.133Z,4.05
2019-01-14T09:49:34.122Z,4.06
2019-01-14T09:50:34.111Z,4.10
2019-01-14T09:51:34.101Z,4.10
2019-01-14T09:52:34.087Z,4.14
2019-01-14T09:53:34.079Z,4.21
2019-01-14T09:54:34.066Z,4.24
2019-01-14T09:55:34.058Z,4.28
2019-01-14T09:56:34.048Z,4.29
2019-01-14T09:57:34.783Z,4.26
2019-01-14T09:58:34.024Z,4.29
2019-01-14T09:59:34.013Z,4.25
2019-01-14T10:00:34.015Z,4.28
2019-01-14T10:01:33.992Z,4.29
2019-01-14T10:02:33.979Z,4.29
2019-01-14T10:03:33.969Z,4.31
2019-01-14T10:04:33.959Z,4.36
2019-01-14T10:05:33.948Z,4.44
2019-01-14T10:06:33.935Z,4.47
2019-01-14T10:07:33.923Z,4.53
2019-01-14T10:08:33.932Z,4.54
2019-01-14T10:09:33.904Z,4.57
2019-01-14T10:10:33.890Z,4.62
2019-01-14T10:11:33.883Z,4.67
2019-01-14T10:12:33.869Z,4.72
2019-01-14T10:13:33.863Z,4.75
2019-01-14T10:14:33.865Z,4.72
2019-01-14T10:15:33.845Z,4.69
2019-01-14T10:16:33.831Z,4.71
2019-01-14T10:17:33.814Z,4.77
2019-01-14T10:18:33.804Z,4.80
2019-01-14T10:19:33.799Z,4.83
2019-01-14T10:20:33.805Z,4.85
2019-01-14T10:21:33.777Z,4.85
2019-01-14T10:22:33.763Z,4.87
2019-01-14T10:23:33.751Z,4.93
2019-01-14T10:24:33.739Z,4.98
2019-01-14T10:25:33.732Z,5.04
2019-01-14T10:26:33.718Z,5.03
2019-01-14T10:27:33.708Z,5.00
2019-01-14T10:28:33.695Z,5.03
2019-01-14T10:29:33.686Z,5.00
2019-01-14T10:30:33.677Z,5.05
2019-01-14T10:31:33.664Z,5.07
2019-01-14T10:32:33.654Z,5.08
2019-01-14T10:33:33.643Z,5.13
2019-01-14T10:34:33.632Z,5.16
2019-01-14T10:35:33.620Z,5.22
2019-01-14T10:36:33.608Z,5.26
2019-01-14T10:37:33.599Z,5.26
2019-01-14T10:38:33.587Z,5.22
2019-01-14T10:39:33.577Z,5.23
2019-01-14T10:40:33.567Z,5.21
2019-01-14T10:41:33.555Z,5.21
2019-01-14T10:42:33.546Z,5.18
2019-01-14T10:43:33.544Z,5.14
2019-01-14T10:44:33.521Z,5.19
2019-01-14T10:45:33.509Z,5.28
2019-01-14T10:46:33.501Z,5.32
2019-01-14T10:47:33.491Z,5.39
2019-01-14T10:48:33.478Z,5.48
2019-01-14T10:49:33.465Z,5.56
2019-01-14T10:50:33.456Z,5.66
2019-01-14T10:51:33.447Z,5.65
2019-01-14T10:52:33.436Z,5.73
2019-01-14T10:53:33.424Z,5.73
2019-01-14T10:54:33.422Z,5.70
2019-01-14T10:55:33.401Z,5.67
2019-01-14T10:56:33.391Z,5.58
2019-01-14T10:57:33.379Z,5.55
2019-01-14T10:58:33.370Z,5.40
2019-01-14T10:59:33.359Z,5.39
2019-01-14T11:00:33.348Z,5.41
2019-01-14T11:01:33.334Z,5.43
2019-01-14T11:02:33.325Z,5.40
2019-01-14T11:03:33.314Z,5.41
2019-01-14T11:04:33.306Z,5.47
2019-01-14T11:05:33.295Z,5.50
2019-01-14T11:06:33.287Z,5.52
2019-01-14T11:07:33.271Z,5.56
2019-01-14T11:08:33.259Z,5.47
2019-01-14T11:09:33.248Z,5.44
2019-01-14T11:10:33.236Z,5.50
2019-01-14T11:11:33.227Z,5.56
2019-01-14T11:12:33.215Z,5.55
2019-01-14T11:13:33.204Z,5.56
2019-01-14T11:14:33.192Z,5.47
2019-01-14T11:15:33.181Z,5.50
2019-01-14T11:16:33.172Z,5.58
2019-01-14T11:17:33.161Z,5.56
2019-01-14T11:18:33.150Z,5.60
2019-01-14T11:19:33.139Z,5.60
2019-01-14T11:20:33.129Z,5.63
2019-01-14T11:21:33.117Z,5.69
2019-01-14T11:22:33.107Z,5.78
2019-01-14T11:23:33.094Z,5.78
2019-01-14T11:24:33.086Z,5.73
2019-01-14T11:25:33.077Z,5.66
2019-01-14T11:26:33.063Z,5.62
2019-01-14T11:27:33.053Z,5.63
2019-01-14T11:28:33.041Z,5.60
2019-01-14T11:29:33.029Z,5.62
2019-01-14T11:30:33.020Z,5.65
2019-01-14T11:31:33.008Z,5.65
2019-01-14T11:32:33.005Z,5.62
2019-01-14T11:33:32.990Z,5.63
2019-01-14T11:34:32.974Z,5.67
2019-01-14T11:35:32.965Z,5.74
2019-01-14T11:36:32.953Z,5.75
2019-01-14T11:37:32.943Z,5.81
2019-01-14T11:38:32.932Z,5.84
2019-01-14T11:39:32.922Z,5.90
2019-01-14T11:40:32.910Z,5.93
2019-01-14T11:41:32.899Z,5.95
2019-01-14T11:42:32.885Z,6.01
2019-01-14T11:43:32.875Z,6.08
2019-01-14T11:44:32.866Z,6.19
2019-01-14T11:45:32.866Z,6.24
2019-01-14T11:46:32.845Z,6.35
2019-01-14T11:47:32.833Z,6.42
2019-01-14T11:48:32.822Z,6.42
2019-01-14T11:49:32.813Z,6.39
2019-01-14T11:50:32.798Z,6.38
2019-01-14T11:51:32.789Z,6.37
2019-01-14T11:52:32.774Z,6.37
2019-01-14T11:53:32.765Z,6.42
2019-01-14T11:54:32.754Z,6.41
2019-01-14T11:55:32.750Z,6.38
2019-01-14T11:56:32.733Z,6.29
2019-01-14T11:57:32.720Z,6.24
2019-01-14T11:58:32.711Z,6.17
2019-01-14T11:59:32.701Z,6.10
2019-01-14T12:00:36.814Z,6.02
2019-01-14T12:01:32.678Z,5.98
2019-01-14T12:02:39.358Z,5.95
2019-01-14T12:05:19.374Z,5.88
2019-01-14T12:06:19.362Z,5.88
2019-01-14T12:07:19.351Z,5.90
2019-01-14T12:08:20.990Z,5.90
2019-01-14T12:09:19.331Z,5.90
2019-01-14T12:10:19.327Z,5.92
2019-01-14T12:11:19.310Z,5.93
2019-01-14T12:12:19.301Z,5.95
2019-01-14T12:13:19.287Z,5.95
2019-01-14T12:14:19.277Z,5.96
2019-01-14T12:15:19.268Z,5.92
2019-01-14T12:16:19.319Z,5.92
2019-01-14T12:17:19.248Z,5.88
2019-01-14T12:18:19.233Z,5.83
2019-01-14T12:19:19.221Z,5.84
2019-01-14T12:20:19.213Z,5.78
2019-01-14T12:21:19.199Z,5.75
2019-01-14T12:22:19.189Z,5.75
2019-01-14T12:23:19.191Z,5.69
2019-01-14T12:24:19.167Z,5.66
2019-01-14T12:25:19.990Z,5.60
2019-01-14T12:26:19.145Z,5.60
2019-01-14T12:27:19.132Z,5.58
2019-01-14T12:28:19.125Z,5.60
2019-01-14T12:29:19.112Z,5.58
2019-01-14T12:30:19.103Z,5.56
2019-01-14T12:31:19.093Z,5.48
2019-01-14T12:32:19.082Z,5.50
2019-01-14T12:33:19.074Z,5.55
2019-01-14T12:34:19.060Z,5.60
2019-01-14T12:35:19.046Z,5.66
2019-01-14T12:36:19.038Z,5.60
2019-01-14T12:37:19.028Z,5.60
2019-01-14T12:38:19.016Z,5.62
2019-01-14T12:39:19.613Z,5.62
2019-01-14T12:40:18.996Z,5.66
2019-01-14T12:41:18.983Z,5.67
2019-01-14T12:42:18.973Z,5.70
2019-01-14T12:43:20.195Z,5.70
2019-01-14T12:44:18.950Z,5.74
2019-01-14T12:45:18.939Z,5.74
2019-01-14T12:46:18.930Z,5.75
2019-01-14T12:47:18.921Z,5.74
2019-01-14T12:48:18.908Z,5.73
2019-01-14T12:49:18.898Z,5.70
2019-01-14T12:50:18.886Z,5.74
2019-01-14T12:51:18.873Z,5.70
2019-01-14T12:52:18.864Z,5.70
2019-01-14T12:53:18.852Z,5.73
2019-01-14T12:54:18.841Z,5.70
2019-01-14T12:55:18.833Z,5.74
2019-01-14T12:56:18.822Z,5.74
2019-01-14T12:57:18.831Z,5.75
2019-01-14T12:58:18.798Z,5.78
2019-01-14T12:59:18.788Z,5.81
2019-01-14T13:00:18.787Z,5.84
2019-01-14T13:01:18.768Z,5.84
2019-01-14T13:02:18.763Z,5.84
2019-01-14T13:03:18.747Z,5.90
2019-01-14T13:04:18.736Z,5.93
2019-01-14T13:05:18.723Z,5.88
2019-01-14T13:06:18.711Z,5.90
2019-01-14T13:07:18.700Z,5.93
2019-01-14T13:08:18.689Z,5.92
2019-01-14T13:09:18.679Z,5.93
2019-01-14T13:10:18.675Z,5.93
2019-01-14T13:11:23.185Z,5.98
2019-01-14T13:12:18.647Z,6.01
2019-01-14T13:13:18.635Z,6.02
2019-01-14T13:14:18.626Z,5.96
2019-01-14T13:15:18.614Z,5.90
2019-01-14T13:16:18.603Z,5.85
2019-01-14T13:17:18.593Z,5.84
2019-01-14T13:18:18.581Z,5.84
2019-01-14T13:19:18.571Z,5.87
2019-01-14T13:20:18.562Z,5.90